createdAt,value
2022-10-13T00:01:23.979Z,13.60
2022-10-13T00:03:53.006Z,13.62
2022-10-13T00:06:25.982Z,13.64
2022-10-13T00:08:55.163Z,13.67
2022-10-13T00:11:27.062Z,13.68
2022-10-13T00:13:58.344Z,13.66
2022-10-13T00:16:28.005Z,13.68
2022-10-13T00:18:56.727Z,13.68
2022-10-13T00:21:26.863Z,13.68
2022-10-13T00:23:55.970Z,13.66
2022-10-13T00:26:25.950Z,13.64
2022-10-13T00:28:56.137Z,13.65
2022-10-13T00:31:30.910Z,13.66
2022-10-13T00:34:01.151Z,13.64
2022-10-13T00:36:30.234Z,13.64
2022-10-13T00:38:59.140Z,13.62
2022-10-13T00:41:27.733Z,13.62
2022-10-13T00:44:26.235Z,13.63
2022-10-13T00:46:54.612Z,13.62
2022-10-13T00:49:23.145Z,13.61
2022-10-13T00:51:52.032Z,13.60
2022-10-13T00:54:24.707Z,13.59
2022-10-13T00:56:54.535Z,13.58
2022-10-13T00:59:27.773Z,13.58
2022-10-13T01:01:59.635Z,13.57
2022-10-13T01:04:33.434Z,13.54
2022-10-13T01:07:03.138Z,13.54
2022-10-13T01:09:37.704Z,13.46
2022-10-13T01:12:13.069Z,13.39
2022-10-13T01:14:59.365Z,13.39
2022-10-13T01:17:55.518Z,13.34
2022-10-13T01:20:50.983Z,13.32
2022-10-13T01:23:34.401Z,13.28
2022-10-13T01:26:02.858Z,13.24
2022-10-13T01:28:46.494Z,13.23
2022-10-13T01:31:30.364Z,13.17
2022-10-13T01:34:16.563Z,13.15
2022-10-13T01:37:02.078Z,13.15
2022-10-13T01:40:02.066Z,13.14
2022-10-13T01:42:40.228Z,13.14
2022-10-13T01:45:18.213Z,13.16
2022-10-13T01:47:47.930Z,13.22
2022-10-13T01:50:18.637Z,13.24
2022-10-13T01:52:47.917Z,13.27
2022-10-13T01:55:16.428Z,13.32
2022-10-13T01:57:45.713Z,13.38
2022-10-13T02:00:20.301Z,13.41
2022-10-13T02:03:07.273Z,13.45
2022-10-13T02:06:20.103Z,13.51
2022-10-13T02:09:14.445Z,13.52
2022-10-13T02:11:49.772Z,13.55
2022-10-13T02:14:24.962Z,13.53
2022-10-13T02:16:55.637Z,13.53
2022-10-13T02:19:24.648Z,13.55
2022-10-13T02:21:53.556Z,13.57
2022-10-13T02:24:21.962Z,13.57
2022-10-13T02:26:51.690Z,13.58
2022-10-13T02:29:20.907Z,13.57
2022-10-13T02:31:49.313Z,13.55
2022-10-13T02:34:17.770Z,13.53
2022-10-13T02:36:48.204Z,13.50
2022-10-13T02:39:18.111Z,13.46
2022-10-13T02:41:46.607Z,13.43
2022-10-13T02:44:15.126Z,13.40
2022-10-13T02:46:43.737Z,13.35
2022-10-13T02:49:12.295Z,13.32
2022-10-13T02:51:40.752Z,13.29
2022-10-13T02:54:09.270Z,13.26
2022-10-13T02:56:37.774Z,13.23
2022-10-13T02:59:06.325Z,13.19
2022-10-13T03:01:36.029Z,13.14
2022-10-13T03:04:04.493Z,13.07
2022-10-13T03:06:32.862Z,13.02
2022-10-13T03:09:01.170Z,12.95
2022-10-13T03:11:29.601Z,12.88
2022-10-13T03:13:57.861Z,12.82
2022-10-13T03:16:26.323Z,12.76
2022-10-13T03:18:54.713Z,12.73
2022-10-13T03:21:23.139Z,12.67
2022-10-13T03:23:51.684Z,12.63
2022-10-13T03:26:20.602Z,12.59
2022-10-13T03:28:50.684Z,12.56
2022-10-13T03:31:19.349Z,12.54
2022-10-13T03:33:48.443Z,12.53
2022-10-13T03:36:17.301Z,12.52
2022-10-13T03:38:47.943Z,12.51
2022-10-13T03:41:19.233Z,12.51
2022-10-13T03:43:51.423Z,12.52
2022-10-13T03:46:19.995Z,12.54
2022-10-13T03:48:48.603Z,12.55
2022-10-13T03:51:19.486Z,12.55
2022-10-13T03:53:49.149Z,12.53
2022-10-13T03:56:21.106Z,12.52
2022-10-13T03:58:58.230Z,12.51
2022-10-13T04:01:29.430Z,12.52
2022-10-13T04:03:59.808Z,12.52
2022-10-13T04:06:29.614Z,12.53
2022-10-13T04:08:58.748Z,12.56
2022-10-13T04:11:27.157Z,12.59
2022-10-13T04:13:58.082Z,12.62
2022-10-13T04:16:28.975Z,12.67
2022-10-13T04:19:00.091Z,12.71
2022-10-13T04:21:30.111Z,12.74
2022-10-13T04:23:59.821Z,12.77
2022-10-13T04:26:31.567Z,12.77
2022-10-13T04:29:04.526Z,12.74
2022-10-13T04:31:33.122Z,12.72
2022-10-13T04:34:01.491Z,12.72
2022-10-13T04:36:29.886Z,12.72
2022-10-13T04:38:58.405Z,12.69
2022-10-13T04:41:26.825Z,12.69
2022-10-13T04:43:55.473Z,12.68
2022-10-13T04:46:27.158Z,12.64
2022-10-13T04:48:57.514Z,12.57
2022-10-13T04:51:35.891Z,12.52
2022-10-13T04:54:05.898Z,12.47
2022-10-13T04:56:34.340Z,12.43
2022-10-13T04:59:06.137Z,12.46
2022-10-13T05:01:36.172Z,12.50
2022-10-13T05:04:08.432Z,12.55
2022-10-13T05:07:05.481Z,12.61
2022-10-13T05:09:30.400Z,12.66
2022-10-13T05:11:58.890Z,12.72
2022-10-13T05:14:27.482Z,12.81
2022-10-13T05:16:55.885Z,12.91
2022-10-13T05:19:24.558Z,13.00
2022-10-13T05:21:53.603Z,13.06
2022-10-13T05:24:31.298Z,13.14
2022-10-13T05:26:59.771Z,13.18
2022-10-13T05:29:28.309Z,13.25
2022-10-13T05:31:56.783Z,13.28
2022-10-13T05:34:25.335Z,13.35
2022-10-13T05:36:53.823Z,13.40
2022-10-13T05:39:22.350Z,13.43
2022-10-13T05:41:50.708Z,13.46
2022-10-13T05:44:22.214Z,13.51
2022-10-13T05:46:57.317Z,13.57
2022-10-13T05:49:25.666Z,13.62
2022-10-13T05:51:56.862Z,13.68
2022-10-13T05:54:31.488Z,13.77
2022-10-13T05:57:00.067Z,13.84
2022-10-13T05:59:32.988Z,13.91
2022-10-13T06:02:03.367Z,13.99
2022-10-13T06:04:49.650Z,14.07
2022-10-13T06:07:18.285Z,14.08
2022-10-13T06:09:46.883Z,14.10
2022-10-13T06:12:15.397Z,14.11
2022-10-13T06:14:44.534Z,14.14
2022-10-13T06:17:13.137Z,14.17
2022-10-13T06:19:45.596Z,14.24
2022-10-13T06:22:13.985Z,14.30
2022-10-13T06:24:42.794Z,14.33
2022-10-13T06:27:11.779Z,14.34
2022-10-13T06:29:40.273Z,14.35
2022-10-13T06:32:08.788Z,14.34
2022-10-13T06:34:37.213Z,14.33
2022-10-13T06:37:05.806Z,14.35
2022-10-13T06:39:34.216Z,14.36
2022-10-13T06:42:05.401Z,14.37
2022-10-13T06:44:37.980Z,14.40
2022-10-13T06:47:06.386Z,14.45
2022-10-13T06:49:34.957Z,14.49
2022-10-13T06:52:04.525Z,14.52
2022-10-13T06:54:33.001Z,14.54
2022-10-13T06:57:01.544Z,14.55
2022-10-13T06:59:29.916Z,14.59
2022-10-13T07:01:58.405Z,14.65
2022-10-13T07:04:28.438Z,14.71
2022-10-13T07:06:59.405Z,14.74
2022-10-13T07:09:28.114Z,14.85
2022-10-13T07:11:56.684Z,14.96
2022-10-13T07:14:25.379Z,15.04
2022-10-13T07:16:53.873Z,15.10
2022-10-13T07:19:22.507Z,15.20
2022-10-13T07:21:50.969Z,15.30
2022-10-13T07:24:19.286Z,15.39
2022-10-13T07:26:47.825Z,15.44
2022-10-13T07:29:16.364Z,15.48
2022-10-13T07:31:45.699Z,15.54
2022-10-13T07:34:16.320Z,15.58
2022-10-13T07:36:44.644Z,15.59
2022-10-13T07:39:13.483Z,15.64
2022-10-13T07:41:41.941Z,15.74
2022-10-13T07:44:10.385Z,15.87
2022-10-13T07:46:38.876Z,15.97
2022-10-13T07:49:09.237Z,16.02
2022-10-13T07:51:39.801Z,16.12
2022-10-13T07:54:09.607Z,16.19
2022-10-13T07:56:38.784Z,16.28
2022-10-13T07:59:09.362Z,16.38
2022-10-13T08:01:37.908Z,16.48
2022-10-13T08:04:07.167Z,16.53
2022-10-13T08:06:36.262Z,16.58
2022-10-13T08:09:05.277Z,16.62
2022-10-13T08:11:33.981Z,16.65
2022-10-13T08:14:02.466Z,16.71
2022-10-13T08:16:32.655Z,16.80
2022-10-13T08:19:01.053Z,16.89
2022-10-13T08:21:57.029Z,16.95
2022-10-13T08:24:19.634Z,16.98
2022-10-13T08:26:48.795Z,17.00
2022-10-13T08:29:23.056Z,17.02
2022-10-13T08:31:53.780Z,17.06
2022-10-13T08:34:24.493Z,17.08
2022-10-13T08:36:56.465Z,17.11
2022-10-13T08:39:25.818Z,17.18
2022-10-13T08:41:58.006Z,17.33
2022-10-13T08:47:34.799Z,17.66
2022-10-13T08:50:12.772Z,17.79
2022-10-13T08:52:49.531Z,17.95
2022-10-13T08:55:31.310Z,18.14
2022-10-13T08:58:02.414Z,18.34
2022-10-13T09:00:31.035Z,18.51
2022-10-13T09:03:20.089Z,18.66
2022-10-13T09:06:06.952Z,18.79
2022-10-13T09:08:45.074Z,18.85
2022-10-13T09:11:13.454Z,18.89
2022-10-13T09:13:42.994Z,18.89
2022-10-13T09:16:11.526Z,19.01
2022-10-13T09:18:40.761Z,19.26
2022-10-13T09:21:24.792Z,19.51
2022-10-13T09:23:54.702Z,19.62
2022-10-13T09:26:25.364Z,19.69
2022-10-13T09:28:54.087Z,19.71
2022-10-13T09:31:28.478Z,19.67
2022-10-13T09:34:02.663Z,19.63
2022-10-13T09:36:31.545Z,19.59
2022-10-13T09:39:15.068Z,19.59
2022-10-13T09:41:45.925Z,19.52
2022-10-13T09:44:30.145Z,19.56
2022-10-13T09:47:01.271Z,19.69
2022-10-13T09:49:43.616Z,19.77
2022-10-13T09:52:15.229Z,19.91
2022-10-13T09:54:50.303Z,20.01
2022-10-13T09:57:30.920Z,20.14
2022-10-13T10:00:07.443Z,20.25
2022-10-13T10:02:50.685Z,20.33
2022-10-13T10:05:25.021Z,20.47
2022-10-13T10:08:04.628Z,20.62
2022-10-13T10:10:41.143Z,20.69
2022-10-13T10:13:12.820Z,20.74
2022-10-13T10:15:59.500Z,20.83
2022-10-13T10:18:39.473Z,20.96
2022-10-13T10:21:38.577Z,20.97
2022-10-13T10:24:19.259Z,21.00
2022-10-13T10:27:42.935Z,20.95
2022-10-13T10:30:21.126Z,20.84
2022-10-13T10:33:12.443Z,20.86
2022-10-13T10:36:03.015Z,20.92
2022-10-13T10:38:44.335Z,20.88
2022-10-13T10:41:27.185Z,20.76
2022-10-13T10:44:03.157Z,20.69
2022-10-13T10:46:36.761Z,20.62
2022-10-13T10:49:14.233Z,20.61
2022-10-13T10:51:43.510Z,20.60
2022-10-13T10:54:34.997Z,20.59
2022-10-13T10:57:24.999Z,20.48
2022-10-13T11:00:06.690Z,20.43
2022-10-13T11:02:50.758Z,20.36
2022-10-13T11:05:19.533Z,20.36
2022-10-13T11:07:47.961Z,20.26
2022-10-13T11:10:16.867Z,20.26
2022-10-13T11:12:51.462Z,20.22
2022-10-13T11:15:44.831Z,20.15
2022-10-13T11:18:50.837Z,20.08
2022-10-13T11:21:19.462Z,20.11
2022-10-13T11:23:49.949Z,20.15
2022-10-13T11:26:31.421Z,20.20
2022-10-13T11:29:00.192Z,20.13
2022-10-13T11:31:51.117Z,20.05
2022-10-13T11:34:28.937Z,20.07
2022-10-13T11:37:00.138Z,20.09
2022-10-13T11:39:44.402Z,20.16
2022-10-13T11:42:12.838Z,20.21
2022-10-13T11:44:47.048Z,20.24
2022-10-13T11:47:46.997Z,20.23
2022-10-13T11:50:32.253Z,20.18
2022-10-13T11:53:20.954Z,20.17
2022-10-13T11:55:50.504Z,20.23
2022-10-13T11:58:22.931Z,20.28
2022-10-13T12:01:12.663Z,20.30
2022-10-13T12:03:43.962Z,20.21
2022-10-13T12:06:37.178Z,20.13
2022-10-13T12:09:19.394Z,20.08
2022-10-13T12:11:57.641Z,20.01
2022-10-13T12:17:41.512Z,20.00
2022-10-13T12:20:31.788Z,20.03
2022-10-13T12:23:00.324Z,20.01
2022-10-13T12:25:31.037Z,19.92
2022-10-13T12:28:01.261Z,19.93
2022-10-13T12:30:38.433Z,19.90
2022-10-13T12:33:23.733Z,19.90
2022-10-13T12:35:52.256Z,19.85
2022-10-13T12:38:22.030Z,19.80
2022-10-13T12:40:52.397Z,19.69
2022-10-13T12:43:27.920Z,19.60
2022-10-13T12:45:56.496Z,19.50
2022-10-13T12:48:34.937Z,19.49
2022-10-13T12:51:21.022Z,19.47
2022-10-13T12:53:49.667Z,19.46
2022-10-13T12:56:42.654Z,19.49
2022-10-13T12:59:19.997Z,19.49
2022-10-13T13:01:58.233Z,19.47
2022-10-13T13:04:32.630Z,19.42
2022-10-13T13:07:03.265Z,19.42
2022-10-13T13:09:39.011Z,19.39
2022-10-13T13:12:13.678Z,19.39
2022-10-13T13:14:50.078Z,19.33
2022-10-13T13:17:38.569Z,19.31
2022-10-13T13:20:30.646Z,19.30
2022-10-13T13:23:01.021Z,19.23
2022-10-13T13:25:29.913Z,19.17
2022-10-13T13:27:58.908Z,19.11
2022-10-13T13:30:27.550Z,19.07
2022-10-13T13:32:55.915Z,19.06
2022-10-13T13:35:24.437Z,19.01
2022-10-13T13:37:53.814Z,18.97
2022-10-13T13:40:25.015Z,18.93
2022-10-13T13:42:54.466Z,18.89
2022-10-13T13:45:25.677Z,18.81
2022-10-13T13:48:00.349Z,18.73
2022-10-13T13:50:36.046Z,18.68
2022-10-13T13:53:05.358Z,18.66
2022-10-13T13:55:34.198Z,18.61
2022-10-13T13:58:02.983Z,18.57
2022-10-13T14:00:31.421Z,18.52
2022-10-13T14:02:59.864Z,18.49
2022-10-13T14:05:28.702Z,18.45
2022-10-13T14:07:58.509Z,18.44
2022-10-13T14:10:27.136Z,18.41
2022-10-13T14:12:55.659Z,18.39
2022-10-13T14:15:28.777Z,18.30
2022-10-13T14:17:58.185Z,18.16
2022-10-13T14:20:26.722Z,18.11
2022-10-13T14:22:55.278Z,18.11
2022-10-13T14:25:24.124Z,18.10
2022-10-13T14:27:52.642Z,18.08
2022-10-13T14:30:20.987Z,18.05
2022-10-13T14:32:49.533Z,17.99
2022-10-13T14:35:18.108Z,17.90
2022-10-13T14:37:46.667Z,17.82
2022-10-13T14:40:15.367Z,17.80
2022-10-13T14:42:44.045Z,17.79
2022-10-13T14:45:16.988Z,17.77
2022-10-13T14:47:45.482Z,17.77
2022-10-13T14:50:14.120Z,17.70
2022-10-13T14:52:42.604Z,17.61
2022-10-13T14:55:11.218Z,17.59
2022-10-13T14:57:40.593Z,17.55
2022-10-13T15:00:11.003Z,17.49
2022-10-13T15:02:39.912Z,17.48
2022-10-13T15:05:08.891Z,17.40
2022-10-13T15:07:40.945Z,17.36
2022-10-13T15:10:09.766Z,17.30
2022-10-13T15:12:38.313Z,17.20
2022-10-13T15:15:07.698Z,17.13
2022-10-13T15:17:37.272Z,17.06
2022-10-13T15:20:07.121Z,16.96
2022-10-13T15:22:35.633Z,16.91
2022-10-13T15:25:08.098Z,16.90
2022-10-13T15:27:41.605Z,16.85
2022-10-13T15:30:10.978Z,16.82
2022-10-13T15:32:39.581Z,16.80
2022-10-13T15:35:08.447Z,16.77
2022-10-13T15:37:38.014Z,16.72
2022-10-13T15:40:07.292Z,16.66
2022-10-13T15:42:35.753Z,16.61
2022-10-13T15:45:09.883Z,16.57
2022-10-13T15:47:39.371Z,16.49
2022-10-13T15:50:09.903Z,16.47
2022-10-13T15:52:40.288Z,16.45
2022-10-13T15:55:11.954Z,16.46
2022-10-13T15:57:40.646Z,16.40
2022-10-13T16:00:11.505Z,16.39
2022-10-13T16:02:43.634Z,16.39
2022-10-13T16:05:13.626Z,16.30
2022-10-13T16:07:42.495Z,16.30
2022-10-13T16:10:13.618Z,16.29
2022-10-13T16:12:49.261Z,16.29
2022-10-13T16:15:18.604Z,16.31
2022-10-13T16:17:47.210Z,16.32
2022-10-13T16:20:15.633Z,16.31
2022-10-13T16:22:44.327Z,16.32
2022-10-13T16:25:12.999Z,16.33
2022-10-13T16:27:44.287Z,16.30
2022-10-13T16:30:13.595Z,16.28
2022-10-13T16:32:41.965Z,16.29
2022-10-13T16:35:10.869Z,16.29
2022-10-13T16:37:40.795Z,16.32
2022-10-13T16:40:09.877Z,16.32
2022-10-13T16:42:39.452Z,16.35
2022-10-13T16:45:08.205Z,16.33
2022-10-13T16:47:36.858Z,16.33
2022-10-13T16:50:09.925Z,16.32
2022-10-13T16:52:38.525Z,16.27
2022-10-13T16:55:07.635Z,16.29
2022-10-13T16:57:36.331Z,16.32
2022-10-13T17:00:06.008Z,16.33
2022-10-13T17:02:37.785Z,16.33
2022-10-13T17:05:06.355Z,16.38
2022-10-13T17:07:35.545Z,16.42
2022-10-13T17:10:04.210Z,16.41
2022-10-13T17:12:32.778Z,16.39
2022-10-13T17:15:01.196Z,16.41
2022-10-13T17:17:29.738Z,16.42
2022-10-13T17:19:58.249Z,16.40
2022-10-13T17:22:26.775Z,16.37
2022-10-13T17:24:55.212Z,16.37
2022-10-13T17:27:24.016Z,16.36
2022-10-13T17:29:54.891Z,16.37
2022-10-13T17:32:23.790Z,16.35
2022-10-13T17:34:52.363Z,16.34
2022-10-13T17:37:21.293Z,16.34
2022-10-13T17:39:50.396Z,16.31
2022-10-13T17:42:18.849Z,16.32
2022-10-13T17:44:49.385Z,16.34
2022-10-13T17:47:18.019Z,16.34
2022-10-13T17:49:46.995Z,16.24
2022-10-13T17:52:17.171Z,16.21
2022-10-13T17:54:45.613Z,16.21
2022-10-13T17:57:14.107Z,16.19
2022-10-13T17:59:42.701Z,16.10
2022-10-13T18:02:11.372Z,16.04
2022-10-13T18:04:40.007Z,15.98
2022-10-13T18:07:08.533Z,16.00
2022-10-13T18:09:37.163Z,15.91
2022-10-13T18:12:05.763Z,15.93
2022-10-13T18:14:34.528Z,15.97
2022-10-13T18:17:03.597Z,15.97
2022-10-13T18:19:35.401Z,15.98
2022-10-13T18:22:06.525Z,16.01
2022-10-13T18:24:35.030Z,15.99
2022-10-13T18:27:03.405Z,15.98
2022-10-13T18:29:31.980Z,15.90
2022-10-13T18:32:00.365Z,15.85
2022-10-13T18:34:28.810Z,15.83
2022-10-13T18:36:57.349Z,15.80
2022-10-13T18:39:27.548Z,15.74
2022-10-13T18:41:57.859Z,15.76
2022-10-13T18:44:35.467Z,15.75
2022-10-13T18:47:04.165Z,15.71
2022-10-13T18:49:35.177Z,15.68
2022-10-13T18:52:04.412Z,15.65
2022-10-13T18:54:33.244Z,15.64
2022-10-13T18:57:02.082Z,15.58
2022-10-13T18:59:30.590Z,15.54
2022-10-13T19:01:59.082Z,15.53
2022-10-13T19:04:27.710Z,15.52
2022-10-13T19:06:56.218Z,15.52
2022-10-13T19:09:26.636Z,15.52
2022-10-13T19:11:58.301Z,15.39
2022-10-13T19:14:27.765Z,15.34
2022-10-13T19:17:01.589Z,15.35
2022-10-13T19:19:31.374Z,15.16
2022-10-13T19:22:02.429Z,15.01
2022-10-13T19:24:31.213Z,14.84
2022-10-13T19:26:59.805Z,14.61
2022-10-13T19:29:28.269Z,14.43
2022-10-13T19:31:57.125Z,14.39
2022-10-13T19:34:26.000Z,14.37
2022-10-13T19:36:58.374Z,14.30
2022-10-13T19:39:27.057Z,14.19
2022-10-13T19:41:57.586Z,14.18
2022-10-13T19:44:26.201Z,14.12
2022-10-13T19:46:55.436Z,14.11
2022-10-13T19:49:26.713Z,14.06
2022-10-13T19:51:56.325Z,14.06
2022-10-13T19:54:25.731Z,14.11
2022-10-13T19:56:55.693Z,14.09
2022-10-13T19:59:24.404Z,14.07
2022-10-13T20:01:52.893Z,14.07
2022-10-13T20:04:21.612Z,14.01
2022-10-13T20:06:51.020Z,13.95
2022-10-13T20:09:20.489Z,13.80
2022-10-13T20:11:50.794Z,13.80
2022-10-13T20:14:19.804Z,13.87
2022-10-13T20:16:49.027Z,13.81
2022-10-13T20:19:19.813Z,13.77
2022-10-13T20:21:52.819Z,13.84
2022-10-13T20:24:24.603Z,13.85
2022-10-13T20:26:54.429Z,13.79
2022-10-13T20:29:23.764Z,13.72
2022-10-13T20:31:52.198Z,13.61
2022-10-13T20:34:20.758Z,13.53
2022-10-13T20:36:51.325Z,13.54
2022-10-13T20:39:20.610Z,13.54
2022-10-13T20:41:49.093Z,13.53
2022-10-13T20:44:18.972Z,13.48
2022-10-13T20:46:47.441Z,13.41
2022-10-13T20:49:15.834Z,13.32
2022-10-13T20:51:45.051Z,13.25
2022-10-13T20:54:15.113Z,13.23
2022-10-13T20:56:43.875Z,13.27
2022-10-13T20:59:14.913Z,13.28
2022-10-13T21:01:43.742Z,13.34
2022-10-13T21:04:12.688Z,13.39
2022-10-13T21:06:42.080Z,13.41
2022-10-13T21:09:10.779Z,13.37
2022-10-13T21:11:41.390Z,13.37
2022-10-13T21:14:10.633Z,13.31
2022-10-13T21:16:41.684Z,13.26
2022-10-13T21:19:11.014Z,13.20
2022-10-13T21:21:40.018Z,13.22
2022-10-13T21:24:10.344Z,13.21
2022-10-13T21:26:40.375Z,13.18
2022-10-13T21:29:14.039Z,13.11
2022-10-13T21:31:42.542Z,13.08
2022-10-13T21:34:11.733Z,13.05
2022-10-13T21:36:44.569Z,13.07
2022-10-13T21:39:14.974Z,12.99
2022-10-13T21:41:43.715Z,12.95
2022-10-13T21:44:14.414Z,12.93
2022-10-13T21:46:43.139Z,12.93
2022-10-13T21:49:11.708Z,12.90
2022-10-13T21:51:40.932Z,12.86
2022-10-13T21:54:13.367Z,12.83
2022-10-13T21:56:42.491Z,12.86
2022-10-13T21:59:12.564Z,12.88
2022-10-13T22:01:41.798Z,12.83
2022-10-13T22:04:15.088Z,12.82
2022-10-13T22:06:44.280Z,12.76
2022-10-13T22:09:14.095Z,12.79
2022-10-13T22:11:43.367Z,12.85
2022-10-13T22:14:12.086Z,12.90
2022-10-13T22:16:43.206Z,12.84
2022-10-13T22:19:12.549Z,12.85
2022-10-13T22:21:44.328Z,12.80
2022-10-13T22:24:15.530Z,12.78
2022-10-13T22:26:45.655Z,12.79
2022-10-13T22:29:17.585Z,12.71
2022-10-13T22:31:47.103Z,12.73
2022-10-13T22:34:16.487Z,12.73
2022-10-13T22:36:45.590Z,12.70
2022-10-13T22:39:14.665Z,12.63
2022-10-13T22:41:43.317Z,12.67
2022-10-13T22:44:12.588Z,12.77
2022-10-13T22:46:41.707Z,12.84
2022-10-13T22:49:14.967Z,12.84
2022-10-13T22:51:43.538Z,12.82
2022-10-13T22:54:12.673Z,12.77
2022-10-13T22:56:41.978Z,12.73
2022-10-13T22:59:12.234Z,12.73
2022-10-13T23:01:41.146Z,12.76
2022-10-13T23:04:10.076Z,12.85
2022-10-13T23:06:38.680Z,12.97
2022-10-13T23:09:11.052Z,13.03
2022-10-13T23:11:41.349Z,13.06
2022-10-13T23:14:12.568Z,13.13
2022-10-13T23:16:41.061Z,13.18
2022-10-13T23:19:09.733Z,13.24
2022-10-13T23:21:38.740Z,13.28
2022-10-13T23:24:08.483Z,13.34
2022-10-13T23:26:36.986Z,13.38
2022-10-13T23:29:05.706Z,13.42
2022-10-13T23:31:34.134Z,13.44
2022-10-13T23:34:02.695Z,13.47
2022-10-13T23:36:33.057Z,13.46
2022-10-13T23:39:05.125Z,13.45
2022-10-13T23:41:35.303Z,13.44
2022-10-13T23:44:04.173Z,13.42
2022-10-13T23:46:32.714Z,13.42
2022-10-13T23:49:01.295Z,13.40
2022-10-13T23:51:29.938Z,13.36
2022-10-13T23:54:12.225Z,13.32
2022-10-13T23:56:40.771Z,13.30
2022-10-13T23:59:09.139Z,13.25
